createdAt,value
2022-08-03T00:01:31.404Z,2.67
2022-08-03T00:03:58.291Z,2.28
2022-08-03T00:06:25.211Z,2.50
2022-08-03T00:08:52.407Z,2.45
2022-08-03T00:11:19.402Z,2.35
2022-08-03T00:13:46.283Z,2.20
2022-08-03T00:16:13.484Z,2.17
2022-08-03T00:18:40.994Z,2.33
2022-08-03T00:21:07.904Z,2.22
2022-08-03T00:23:51.788Z,2.40
2022-08-03T00:28:47.590Z,2.30
2022-08-03T00:31:14.492Z,2.35
2022-08-03T00:33:58.994Z,2.05
2022-08-03T00:36:27.676Z,2.15
2022-08-03T00:38:55.210Z,2.40
2022-08-03T00:41:22.593Z,2.15
2022-08-03T00:43:49.510Z,3.00
2022-08-03T00:46:20.790Z,2.40
2022-08-03T00:48:52.395Z,2.20
2022-08-03T00:51:21.265Z,2.50
2022-08-03T00:53:48.448Z,2.05
2022-08-03T00:56:16.709Z,2.13
2022-08-03T00:58:47.398Z,1.88
2022-08-03T01:01:15.114Z,2.00
2022-08-03T01:03:42.220Z,2.08
2022-08-03T01:06:19.791Z,2.70
2022-08-03T01:08:49.799Z,2.63
2022-08-03T01:11:25.023Z,2.13
2022-08-03T01:14:18.713Z,3.17
2022-08-03T01:17:05.175Z,2.78
2022-08-03T01:20:08.010Z,2.40
2022-08-03T01:23:03.397Z,2.10
2022-08-03T01:26:06.150Z,2.20
2022-08-03T01:28:44.870Z,1.88
2022-08-03T01:31:15.842Z,2.00
2022-08-03T01:33:46.481Z,2.15
2022-08-03T01:36:17.929Z,2.08
2022-08-03T01:39:09.310Z,2.67
2022-08-03T01:41:42.327Z,1.98
2022-08-03T01:44:27.394Z,2.50
2022-08-03T01:47:00.072Z,2.45
2022-08-03T01:49:30.394Z,2.08
2022-08-03T01:52:04.394Z,2.20
2022-08-03T01:54:37.322Z,2.13
2022-08-03T01:57:04.942Z,2.03
2022-08-03T01:59:34.604Z,1.85
2022-08-03T02:02:28.863Z,2.75
2022-08-03T02:04:52.843Z,2.25
2022-08-03T02:07:20.469Z,2.28
2022-08-03T02:09:51.562Z,2.53
2022-08-03T02:12:20.808Z,2.45
2022-08-03T02:14:50.264Z,2.08
2022-08-03T02:17:18.088Z,3.22
2022-08-03T02:20:06.611Z,2.20
2022-08-03T02:22:34.642Z,2.03
2022-08-03T02:25:02.049Z,2.03
2022-08-03T02:27:31.856Z,2.08
2022-08-03T02:30:07.566Z,2.15
2022-08-03T02:32:39.448Z,2.80
2022-08-03T02:35:17.132Z,2.42
2022-08-03T02:37:49.752Z,2.00
2022-08-03T02:40:19.485Z,2.25
2022-08-03T02:42:47.602Z,2.45
2022-08-03T02:45:16.840Z,1.88
2022-08-03T02:47:53.797Z,2.15
2022-08-03T02:50:23.322Z,2.03
2022-08-03T02:52:52.260Z,2.58
2022-08-03T02:55:22.031Z,2.40
2022-08-03T02:57:50.000Z,2.70
2022-08-03T03:00:27.742Z,2.55
2022-08-03T03:02:59.526Z,2.63
2022-08-03T03:05:55.516Z,2.58
2022-08-03T03:08:20.567Z,2.47
2022-08-03T03:10:56.036Z,3.00
2022-08-03T03:13:23.644Z,2.45
2022-08-03T03:15:52.258Z,2.45
2022-08-03T03:18:22.766Z,2.45
2022-08-03T03:20:52.687Z,1.85
2022-08-03T03:23:23.531Z,2.33
2022-08-03T03:25:51.512Z,2.50
2022-08-03T03:28:18.805Z,2.42
2022-08-03T03:30:52.766Z,2.20
2022-08-03T03:33:21.151Z,2.75
2022-08-03T03:35:48.559Z,2.40
2022-08-03T03:38:15.919Z,1.95
2022-08-03T03:40:43.179Z,2.33
2022-08-03T03:43:11.463Z,2.33
2022-08-03T03:45:40.758Z,1.98
2022-08-03T03:48:08.310Z,2.25
2022-08-03T03:50:37.145Z,3.03
2022-08-03T03:53:04.916Z,2.40
2022-08-03T03:55:36.575Z,2.10
2022-08-03T03:58:23.518Z,2.60
2022-08-03T04:00:54.009Z,2.40
2022-08-03T04:03:21.211Z,2.17
2022-08-03T04:06:06.809Z,2.47
2022-08-03T04:08:52.320Z,2.33
2022-08-03T04:11:31.037Z,2.67
2022-08-03T04:14:03.677Z,2.35
2022-08-03T04:16:41.895Z,3.35
2022-08-03T04:19:16.578Z,2.30
2022-08-03T04:21:50.827Z,2.70
2022-08-03T04:24:20.599Z,2.50
2022-08-03T04:26:52.802Z,2.63
2022-08-03T04:29:20.997Z,2.83
2022-08-03T04:31:49.248Z,2.38
2022-08-03T04:34:16.628Z,2.17
2022-08-03T04:36:51.764Z,2.50
2022-08-03T04:39:25.674Z,3.20
2022-08-03T04:42:08.149Z,2.50
2022-08-03T04:44:41.991Z,2.53
2022-08-03T04:47:09.189Z,2.20
2022-08-03T04:49:40.242Z,2.10
2022-08-03T04:52:10.956Z,2.70
2022-08-03T04:54:50.291Z,2.85
2022-08-03T04:57:22.937Z,2.58
2022-08-03T05:00:02.606Z,2.40
2022-08-03T05:02:31.799Z,2.60
2022-08-03T05:04:59.373Z,2.40
2022-08-03T05:07:26.253Z,2.28
2022-08-03T05:10:03.727Z,2.42
2022-08-03T05:12:33.587Z,2.58
2022-08-03T05:15:01.290Z,2.67
2022-08-03T05:17:28.786Z,2.35
2022-08-03T05:19:56.257Z,2.75
2022-08-03T05:22:23.354Z,2.33
2022-08-03T05:24:50.340Z,2.72
2022-08-03T05:27:19.910Z,2.17
2022-08-03T05:29:48.620Z,2.80
2022-08-03T05:32:16.977Z,2.75
2022-08-03T05:34:44.574Z,2.70
2022-08-03T05:37:11.833Z,3.22
2022-08-03T05:39:38.965Z,2.33
2022-08-03T05:42:05.885Z,2.55
2022-08-03T05:44:32.865Z,2.47
2022-08-03T05:46:59.914Z,2.58
2022-08-03T05:49:26.888Z,2.80
2022-08-03T05:52:00.251Z,2.20
2022-08-03T05:54:55.410Z,2.33
2022-08-03T05:57:25.342Z,2.90
2022-08-03T05:59:58.063Z,2.47
2022-08-03T06:02:27.114Z,3.28
2022-08-03T06:04:54.312Z,2.65
2022-08-03T06:07:21.429Z,2.38
2022-08-03T06:10:36.157Z,2.50
2022-08-03T06:12:39.064Z,2.53
2022-08-03T06:15:07.798Z,2.80
2022-08-03T06:17:48.312Z,2.55
2022-08-03T06:20:19.374Z,3.65
2022-08-03T06:22:51.024Z,2.28
2022-08-03T06:25:27.293Z,2.40
2022-08-03T06:27:54.191Z,2.80
2022-08-03T06:30:21.589Z,2.97
2022-08-03T06:32:51.808Z,2.50
2022-08-03T06:35:20.127Z,2.20
2022-08-03T06:37:49.023Z,2.20
2022-08-03T06:40:24.568Z,3.20
2022-08-03T06:42:51.664Z,2.20
2022-08-03T06:45:18.774Z,2.40
2022-08-03T06:47:45.660Z,2.30
2022-08-03T06:50:17.048Z,2.33
2022-08-03T06:52:45.494Z,2.20
2022-08-03T06:55:12.656Z,3.40
2022-08-03T06:57:39.598Z,2.40
2022-08-03T07:00:12.415Z,2.30
2022-08-03T07:02:42.794Z,2.40
2022-08-03T07:08:52.890Z,2.05
2022-08-03T07:11:20.637Z,2.50
2022-08-03T07:13:47.628Z,2.58
2022-08-03T07:16:14.570Z,2.05
2022-08-03T07:18:41.517Z,1.95
2022-08-03T07:21:10.229Z,1.92
2022-08-03T07:23:37.148Z,2.00
2022-08-03T07:26:04.187Z,1.98
2022-08-03T07:28:31.260Z,2.33
2022-08-03T07:30:58.182Z,2.03
2022-08-03T07:33:25.261Z,1.80
2022-08-03T07:35:52.385Z,1.70
2022-08-03T07:38:21.140Z,1.90
2022-08-03T07:40:51.907Z,1.50
2022-08-03T07:43:18.774Z,2.35
2022-08-03T07:45:45.678Z,1.90
2022-08-03T07:48:12.856Z,1.80
2022-08-03T07:50:39.808Z,2.10
2022-08-03T07:53:06.796Z,1.80
2022-08-03T07:55:34.020Z,1.98
2022-08-03T07:58:16.508Z,1.60
2022-08-03T08:00:46.234Z,1.90
2022-08-03T08:03:13.523Z,1.83
2022-08-03T08:05:40.578Z,2.35
2022-08-03T08:08:07.570Z,2.03
2022-08-03T08:10:35.215Z,2.25
2022-08-03T08:13:02.852Z,2.47
2022-08-03T08:15:31.900Z,2.00
2022-08-03T08:18:01.099Z,1.80
2022-08-03T08:20:37.973Z,2.05
2022-08-03T08:23:37.889Z,2.00
2022-08-03T08:25:55.001Z,1.95
2022-08-03T08:28:32.114Z,1.85
2022-08-03T08:31:00.960Z,2.10
2022-08-03T08:33:42.198Z,2.55
2022-08-03T08:36:15.523Z,2.90
2022-08-03T08:38:45.207Z,2.83
2022-08-03T08:41:14.277Z,2.58
2022-08-03T08:43:42.278Z,2.58
2022-08-03T08:46:13.179Z,2.25
2022-08-03T08:48:51.743Z,2.88
2022-08-03T08:51:20.756Z,2.10
2022-08-03T08:53:52.068Z,2.38
2022-08-03T08:56:20.582Z,2.28
2022-08-03T08:59:01.825Z,2.30
2022-08-03T09:01:30.664Z,2.80
2022-08-03T09:03:57.662Z,3.00
2022-08-03T09:06:24.718Z,2.70
2022-08-03T09:08:51.619Z,3.15
2022-08-03T09:11:51.584Z,2.95
2022-08-03T09:14:11.149Z,2.97
2022-08-03T09:17:03.337Z,2.95
2022-08-03T09:19:32.541Z,2.88
2022-08-03T09:22:15.807Z,2.50
2022-08-03T09:25:24.348Z,2.53
2022-08-03T09:27:51.726Z,2.28
2022-08-03T09:30:34.961Z,1.95
2022-08-03T09:33:04.531Z,2.20
2022-08-03T09:38:24.379Z,2.33
2022-08-03T09:44:44.687Z,2.83
2022-08-03T09:47:13.555Z,2.40
2022-08-03T09:49:42.604Z,2.20
2022-08-03T09:52:39.295Z,2.15
2022-08-03T09:56:32.842Z,2.00
2022-08-03T09:58:09.558Z,2.60
2022-08-03T10:00:54.087Z,2.40
2022-08-03T10:03:21.587Z,2.63
2022-08-03T10:05:48.499Z,2.42
2022-08-03T10:08:17.248Z,2.20
2022-08-03T10:10:47.158Z,2.40
2022-08-03T10:13:15.126Z,2.35
2022-08-03T10:16:21.197Z,2.35
2022-08-03T10:18:29.691Z,2.35
2022-08-03T10:21:04.046Z,2.30
2022-08-03T10:23:35.151Z,2.30
2022-08-03T10:26:08.233Z,2.38
2022-08-03T10:28:44.503Z,2.83
2022-08-03T10:31:14.442Z,2.28
2022-08-03T10:33:51.490Z,2.40
2022-08-03T10:36:23.836Z,2.30
2022-08-03T10:38:53.269Z,2.95
2022-08-03T10:41:30.988Z,2.35
2022-08-03T10:47:46.049Z,2.40
2022-08-03T10:50:13.596Z,2.58
2022-08-03T10:53:10.152Z,2.70
2022-08-03T10:56:01.181Z,2.63
2022-08-03T10:58:37.603Z,2.13
2022-08-03T11:05:31.262Z,2.25
2022-08-03T11:08:23.183Z,2.50
2022-08-03T11:10:51.850Z,2.70
2022-08-03T11:13:21.207Z,2.60
2022-08-03T11:15:50.351Z,2.90
2022-08-03T11:18:18.899Z,2.88
2022-08-03T11:20:51.444Z,2.70
2022-08-03T11:24:04.442Z,2.67
2022-08-03T11:26:25.001Z,3.30
2022-08-03T11:28:52.035Z,3.10
2022-08-03T11:31:49.670Z,2.85
2022-08-03T11:34:18.109Z,3.08
2022-08-03T11:37:21.801Z,3.67
2022-08-03T11:39:51.753Z,3.00
2022-08-03T11:42:24.774Z,2.92
2022-08-03T11:44:55.113Z,3.47
2022-08-03T11:47:23.256Z,3.00
2022-08-03T11:49:51.835Z,3.67
2022-08-03T11:52:26.784Z,3.30
2022-08-03T11:54:56.607Z,3.55
2022-08-03T11:59:16.665Z,3.22
2022-08-03T12:02:59.010Z,3.05
2022-08-03T12:05:40.421Z,2.90
2022-08-03T12:08:08.455Z,3.00
2022-08-03T12:10:36.009Z,2.80
2022-08-03T12:13:56.605Z,3.28
2022-08-03T12:15:59.228Z,3.10
2022-08-03T12:18:26.466Z,2.95
2022-08-03T12:21:03.170Z,3.03
2022-08-03T12:23:30.468Z,3.42
2022-08-03T12:26:03.574Z,3.17
2022-08-03T12:28:36.772Z,2.75
2022-08-03T12:31:11.961Z,2.55
2022-08-03T12:36:27.339Z,3.00
2022-08-03T12:38:59.534Z,2.92
2022-08-03T12:41:31.814Z,2.70
2022-08-03T12:43:59.130Z,2.47
2022-08-03T12:46:31.939Z,2.80
2022-08-03T12:49:06.666Z,2.80
2022-08-03T12:51:56.478Z,2.58
2022-08-03T12:54:26.001Z,2.70
2022-08-03T12:57:11.123Z,3.20
2022-08-03T12:59:53.134Z,2.45
2022-08-03T13:02:25.769Z,2.80
2022-08-03T13:04:55.003Z,2.40
2022-08-03T13:07:22.903Z,3.13
2022-08-03T13:09:55.515Z,2.70
2022-08-03T13:12:28.758Z,2.30
2022-08-03T13:14:57.813Z,3.53
2022-08-03T13:17:25.536Z,2.53
2022-08-03T13:19:53.479Z,2.60
2022-08-03T13:22:31.183Z,2.53
2022-08-03T13:24:58.376Z,2.53
2022-08-03T13:28:03.217Z,2.03
2022-08-03T13:30:13.711Z,2.63
2022-08-03T13:32:47.976Z,2.60
2022-08-03T13:35:16.611Z,2.60
2022-08-03T13:37:43.649Z,2.42
2022-08-03T13:40:15.765Z,2.60
2022-08-03T13:42:42.789Z,2.40
2022-08-03T13:45:11.305Z,2.70
2022-08-03T13:47:38.303Z,2.60
2022-08-03T13:50:05.475Z,2.20
2022-08-03T13:52:35.917Z,2.75
2022-08-03T13:55:07.084Z,2.22
2022-08-03T13:58:02.871Z,2.25
2022-08-03T14:00:28.121Z,2.60
2022-08-03T14:03:03.867Z,2.50
2022-08-03T14:05:34.645Z,2.58
2022-08-03T14:08:04.014Z,2.17
2022-08-03T14:10:50.868Z,2.20
2022-08-03T14:13:18.346Z,2.38
2022-08-03T14:15:50.172Z,2.40
2022-08-03T14:18:28.996Z,2.03
2022-08-03T14:21:06.015Z,2.50
2022-08-03T14:23:34.612Z,2.35
2022-08-03T14:29:42.192Z,2.10
2022-08-03T14:32:11.664Z,1.85
2022-08-03T14:34:39.777Z,2.20
2022-08-03T14:40:48.693Z,1.90
2022-08-03T14:43:18.173Z,2.05
2022-08-03T14:45:45.113Z,1.70
2022-08-03T14:50:33.381Z,1.80
2022-08-03T14:50:59.658Z,1.90
2022-08-03T14:53:26.597Z,1.58
2022-08-03T14:55:53.718Z,2.30
2022-08-03T14:58:27.952Z,1.88
2022-08-03T15:00:55.980Z,2.05
2022-08-03T15:03:25.002Z,2.50
2022-08-03T15:05:56.590Z,2.10
2022-08-03T15:08:24.853Z,2.10
2022-08-03T15:14:39.223Z,1.40
2022-08-03T15:17:07.012Z,1.50
2022-08-03T15:20:05.563Z,1.00
2022-08-03T15:22:25.406Z,1.40
2022-08-03T15:26:02.269Z,1.33
2022-08-03T15:28:03.379Z,1.23
2022-08-03T15:30:35.204Z,1.52
2022-08-03T15:33:02.692Z,1.40
2022-08-03T15:35:29.757Z,1.17
2022-08-03T15:37:56.655Z,1.20
2022-08-03T15:40:23.544Z,1.27
2022-08-03T15:42:50.407Z,1.35
2022-08-03T15:45:17.789Z,1.17
2022-08-03T15:47:47.305Z,1.23
2022-08-03T15:50:14.228Z,1.20
2022-08-03T15:52:41.103Z,1.50
2022-08-03T15:55:08.687Z,1.75
2022-08-03T15:59:09.545Z,1.40
2022-08-03T16:00:33.355Z,1.50
2022-08-03T16:03:01.276Z,1.50
2022-08-03T16:05:28.584Z,1.33
2022-08-03T16:07:59.062Z,1.75
2022-08-03T16:10:30.766Z,1.60
2022-08-03T16:12:59.052Z,1.50
2022-08-03T16:15:26.138Z,1.77
2022-08-03T16:17:53.215Z,1.60
2022-08-03T16:20:33.898Z,1.33
2022-08-03T16:23:09.188Z,2.10
2022-08-03T16:25:38.632Z,2.00
2022-08-03T16:28:12.525Z,1.92
2022-08-03T16:30:41.645Z,1.65
2022-08-03T16:33:09.202Z,1.85
2022-08-03T16:35:36.218Z,2.08
2022-08-03T16:38:09.289Z,3.28
2022-08-03T16:40:37.332Z,2.40
2022-08-03T16:43:18.789Z,2.90
2022-08-03T16:45:47.028Z,2.67
2022-08-03T16:48:15.180Z,2.70
2022-08-03T16:50:42.181Z,2.58
2022-08-03T16:53:15.528Z,3.03
2022-08-03T16:55:53.601Z,2.78
2022-08-03T16:58:42.934Z,3.20
2022-08-03T17:01:23.569Z,2.47
2022-08-03T17:04:02.223Z,3.20
2022-08-03T17:06:34.875Z,3.13
2022-08-03T17:09:11.778Z,2.90
2022-08-03T17:11:46.779Z,2.70
2022-08-03T17:14:17.380Z,3.10
2022-08-03T17:16:52.597Z,3.00
2022-08-03T17:19:23.290Z,3.00
2022-08-03T17:22:01.500Z,2.70
2022-08-03T17:24:41.166Z,2.97
2022-08-03T17:28:41.896Z,2.83
2022-08-03T17:30:10.638Z,3.05
2022-08-03T17:32:52.680Z,3.50
2022-08-03T17:35:36.674Z,3.38
2022-08-03T17:38:10.306Z,3.17
2022-08-03T17:40:50.087Z,3.38
2022-08-03T17:44:12.900Z,3.08
2022-08-03T17:46:07.310Z,3.15
2022-08-03T17:48:41.451Z,3.63
2022-08-03T17:51:17.888Z,3.13
2022-08-03T17:53:53.800Z,3.72
2022-08-03T17:56:42.517Z,3.10
2022-08-03T17:59:51.565Z,3.30
2022-08-03T18:02:58.617Z,3.10
2022-08-03T18:06:11.499Z,3.40
2022-08-03T18:08:27.720Z,3.97
2022-08-03T18:11:14.611Z,3.65
2022-08-03T18:13:57.577Z,3.70
2022-08-03T18:16:33.137Z,3.70
2022-08-03T18:19:09.407Z,3.60
2022-08-03T18:22:03.657Z,3.78
2022-08-03T18:24:30.096Z,4.50
2022-08-03T18:26:59.024Z,3.60
2022-08-03T18:29:27.585Z,3.53
2022-08-03T18:32:04.081Z,3.95
2022-08-03T18:34:34.617Z,3.78
2022-08-03T18:37:07.270Z,4.03
2022-08-03T18:39:49.388Z,4.40
2022-08-03T18:42:19.532Z,4.30
2022-08-03T18:44:53.944Z,3.90
2022-08-03T18:47:51.619Z,3.75
2022-08-03T18:50:23.771Z,3.70
2022-08-03T18:53:19.452Z,4.30
2022-08-03T18:56:16.301Z,4.55
2022-08-03T18:59:00.126Z,5.15
2022-08-03T19:02:00.976Z,4.50
2022-08-03T19:07:28.808Z,4.82
2022-08-03T19:10:09.653Z,4.50
2022-08-03T19:12:47.859Z,4.10
2022-08-03T19:15:15.818Z,4.78
2022-08-03T19:17:52.848Z,4.40
2022-08-03T19:20:23.151Z,4.57
2022-08-03T19:26:38.583Z,5.13
2022-08-03T19:29:14.815Z,4.40
2022-08-03T19:31:59.101Z,4.90
2022-08-03T19:34:29.805Z,5.13
2022-08-03T19:36:59.733Z,4.68
2022-08-03T19:39:26.820Z,5.22
2022-08-03T19:41:58.753Z,5.10
2022-08-03T19:48:20.108Z,5.13
2022-08-03T19:50:52.561Z,5.25
2022-08-03T19:53:22.157Z,5.93
2022-08-03T19:55:53.755Z,4.88
2022-08-03T19:58:28.432Z,5.22
2022-08-03T20:00:55.893Z,5.40
2022-08-03T20:03:26.333Z,5.65
2022-08-03T20:05:54.212Z,5.25
2022-08-03T20:08:22.710Z,5.72
2022-08-03T20:10:50.086Z,5.07
2022-08-03T20:13:19.583Z,6.20
2022-08-03T20:15:47.004Z,6.03
2022-08-03T20:18:16.828Z,6.15
2022-08-03T20:20:48.154Z,5.68
2022-08-03T20:23:19.491Z,5.82
2022-08-03T20:25:58.563Z,5.85
2022-08-03T20:32:14.470Z,6.30
2022-08-03T20:34:42.432Z,5.75
2022-08-03T20:40:50.302Z,6.15
2022-08-03T20:43:18.408Z,6.38
2022-08-03T20:46:00.709Z,6.05
2022-08-03T20:52:34.697Z,6.35
2022-08-03T20:55:14.618Z,5.93
2022-08-03T20:57:43.247Z,6.57
2022-08-03T21:00:18.766Z,6.65
2022-08-03T21:02:49.071Z,6.28
2022-08-03T21:05:16.056Z,6.88
2022-08-03T21:11:25.289Z,6.70
2022-08-03T21:13:01.259Z,5.05
2022-08-03T21:13:59.196Z,6.80
2022-08-03T21:16:29.610Z,6.93
2022-08-03T21:19:02.516Z,8.65
2022-08-03T21:21:32.341Z,7.05
2022-08-03T21:24:00.599Z,7.03
2022-08-03T21:26:31.654Z,7.72
2022-08-03T21:28:58.539Z,7.25
2022-08-03T21:31:26.814Z,7.78
2022-08-03T21:34:00.768Z,7.15
2022-08-03T21:36:29.726Z,7.28
2022-08-03T21:38:57.924Z,6.95
2022-08-03T21:41:30.211Z,7.85
2022-08-03T21:43:58.123Z,5.95
2022-08-03T21:46:27.008Z,6.15
2022-08-03T21:50:07.322Z,6.00
2022-08-03T21:51:52.249Z,6.80
2022-08-03T21:54:22.006Z,5.82
2022-08-03T21:56:51.353Z,5.22
2022-08-03T21:59:20.084Z,5.25
2022-08-03T22:01:49.151Z,4.72
2022-08-03T22:04:49.966Z,4.68
2022-08-03T22:07:08.184Z,4.35
2022-08-03T22:09:36.359Z,4.18
2022-08-03T22:12:04.164Z,3.90
2022-08-03T22:14:33.574Z,4.07
2022-08-03T22:17:03.432Z,4.30
2022-08-03T22:19:34.112Z,3.45
2022-08-03T22:22:04.696Z,4.53
2022-08-03T22:24:35.229Z,3.83
2022-08-03T22:27:22.307Z,3.35
2022-08-03T22:29:52.011Z,3.55
2022-08-03T22:32:19.843Z,3.53
2022-08-03T22:34:47.823Z,3.08
2022-08-03T22:37:18.609Z,3.47
2022-08-03T22:39:46.187Z,2.80
2022-08-03T22:42:13.806Z,2.95
2022-08-03T22:44:41.160Z,3.28
2022-08-03T22:47:10.352Z,3.03
2022-08-03T22:49:37.973Z,3.20
2022-08-03T22:52:06.099Z,3.17
2022-08-03T22:54:33.640Z,3.05
2022-08-03T22:57:01.255Z,3.38
2022-08-03T22:59:40.885Z,2.92
2022-08-03T23:02:21.272Z,3.45
2022-08-03T23:04:56.688Z,2.95
2022-08-03T23:07:41.829Z,3.10
2022-08-03T23:10:13.736Z,3.03
2022-08-03T23:12:42.389Z,2.67
2022-08-03T23:15:11.729Z,2.72
2022-08-03T23:17:57.329Z,3.00
2022-08-03T23:20:26.688Z,3.05
2022-08-03T23:22:54.668Z,2.80
2022-08-03T23:25:22.161Z,3.10
2022-08-03T23:28:05.215Z,3.80
2022-08-03T23:30:37.288Z,3.38
2022-08-03T23:33:04.647Z,2.70
2022-08-03T23:36:29.738Z,3.17
2022-08-03T23:38:37.306Z,3.20
2022-08-03T23:41:07.216Z,2.75
2022-08-03T23:43:52.127Z,2.75
2022-08-03T23:46:22.762Z,2.78
2022-08-03T23:48:51.064Z,2.78
2022-08-03T23:51:46.515Z,3.50
2022-08-03T23:54:36.558Z,2.80
2022-08-03T23:57:16.648Z,2.63
